Time;durP1;ratioP1;P1;durP2;ratioP2;P2;SDS_P1;SDS_P2;PMS_P1;PMS_P2;Temp;Humidity;BMP_temperature;BMP_pressure;BME280_temperature;BME280_humidity;BME280_pressure;Samples;Min_cycle;Max_cycle;Signal;HPM_P1;HPM_P2
2023/10/07 00:01:52;;;;;;;11.98;7.07;;;12.80;76.80;;;;;;4983808;28;20494;-64
2023/10/07 00:04:18;;;;;;;10.43;7.30;;;12.70;76.90;;;;;;4984203;28;20026;-63
2023/10/07 00:06:45;;;;;;;10.93;7.80;;;12.60;77.00;;;;;;4985468;28;20037;-64
2023/10/07 00:09:15;;;;;;;10.63;7.40;;;12.50;78.20;;;;;;4980999;28;20042;-63
2023/10/07 00:11:46;;;;;;;10.82;7.35;;;12.40;77.50;;;;;;4981658;28;20038;-63
2023/10/07 00:14:12;;;;;;;12.50;7.38;;;12.30;77.60;;;;;;4983674;28;20035;-63
2023/10/07 00:16:38;;;;;;;9.98;7.45;;;12.30;77.70;;;;;;4983737;28;20049;-63
2023/10/07 00:19:03;;;;;;;9.88;7.10;;;12.20;77.80;;;;;;4984188;28;20050;-63
2023/10/07 00:21:52;;;;;;;9.38;7.18;;;12.10;77.90;;;;;;4981222;28;20046;-63
2023/10/07 00:24:16;;;;;;;11.02;7.63;;;12.10;78.10;;;;;;4981397;28;20037;-63
2023/10/07 00:26:43;;;;;;;9.93;7.15;;;12.10;78.20;;;;;;4984119;28;20125;-63
2023/10/07 00:29:12;;;;;;;10.52;7.60;;;12.00;78.40;;;;;;4987487;28;20042;-63
2023/10/07 00:31:40;;;;;;;11.32;7.30;;;11.90;78.40;;;;;;4984342;28;20358;-63
2023/10/07 00:34:13;;;;;;;11.35;7.15;;;11.90;78.60;;;;;;4984934;28;20593;-63
2023/10/07 00:39:07;;;;;;;12.10;7.70;;;11.80;79.00;;;;;;4982202;28;20088;-63
2023/10/07 00:41:39;;;;;;;11.23;7.47;;;11.80;79.10;;;;;;4984275;28;20113;-63
2023/10/07 00:44:29;;;;;;;12.50;8.38;;;11.70;79.00;;;;;;4983211;28;20035;-63
2023/10/07 00:47:07;;;;;;;12.13;7.35;;;11.80;78.80;;;;;;4983696;28;20418;-63
2023/10/07 00:49:40;;;;;;;10.38;7.68;;;11.70;78.40;;;;;;4984763;28;20130;-63
2023/10/07 00:52:12;;;;;;;9.73;7.00;;;11.70;78.40;;;;;;4985980;28;20092;-63
2023/10/07 00:59:57;;;;;;;9.68;6.95;;;11.50;78.90;;;;;;4983147;28;20069;-63
2023/10/07 01:02:33;;;;;;;8.98;6.63;;;11.50;78.90;;;;;;4981332;28;20506;-63
2023/10/07 01:05:00;;;;;;;11.82;6.80;;;11.40;78.90;;;;;;4983996;28;20042;-63
2023/10/07 01:07:31;;;;;;;9.73;7.10;;;11.40;79.10;;;;;;4983739;28;20137;-63
2023/10/07 01:12:44;;;;;;;12.45;7.75;;;11.40;78.90;;;;;;4978646;28;20109;-63
2023/10/07 01:15:30;;;;;;;12.38;7.30;;;11.40;79.10;;;;;;4984565;28;20038;-63
2023/10/07 01:18:03;;;;;;;11.15;7.60;;;11.40;79.70;;;;;;4986947;28;20042;-64
2023/10/07 01:20:59;;;;;;;9.23;6.95;;;11.30;78.70;;;;;;4989580;28;20049;-64
2023/10/07 01:23:23;;;;;;;9.95;7.10;;;11.30;78.90;;;;;;4990188;28;20026;-64
2023/10/07 01:25:50;;;;;;;8.45;7.13;;;11.30;78.70;;;;;;4988785;28;20042;-63
2023/10/07 01:28:17;;;;;;;11.55;6.68;;;11.30;78.60;;;;;;4986816;28;20053;-63
2023/10/07 01:33:38;;;;;;;9.63;6.88;;;11.20;78.50;;;;;;4986225;28;20045;-63
2023/10/07 01:36:10;;;;;;;9.77;7.15;;;11.20;78.60;;;;;;4985821;28;20117;-63
2023/10/07 01:38:41;;;;;;;10.15;7.35;;;11.10;78.60;;;;;;4979995;28;20466;-63
2023/10/07 01:41:14;;;;;;;9.05;7.03;;;11.10;78.70;;;;;;4977271;28;20112;-63
2023/10/07 01:43:40;;;;;;;10.30;6.95;;;11.00;78.90;;;;;;4976626;28;20069;-61
2023/10/07 01:46:10;;;;;;;9.77;6.88;;;11.00;78.90;;;;;;4979101;28;20049;-63
2023/10/07 01:48:37;;;;;;;8.80;6.63;;;10.90;79.10;;;;;;4983384;28;20038;-63
2023/10/07 01:51:05;;;;;;;11.35;7.60;;;10.90;79.30;;;;;;4986196;28;20060;-63
2023/10/07 01:53:32;;;;;;;9.63;6.75;;;10.80;79.30;;;;;;4981386;28;20038;-63
2023/10/07 01:55:58;;;;;;;10.48;7.38;;;10.80;79.60;;;;;;4983169;28;20126;-64
2023/10/07 01:58:25;;;;;;;13.38;7.50;;;10.70;79.70;;;;;;4983720;28;20035;-63
2023/10/07 02:00:57;;;;;;;10.10;7.45;;;10.70;79.80;;;;;;4978158;28;20062;-63
2023/10/07 02:03:24;;;;;;;12.23;7.65;;;10.70;80.00;;;;;;4981693;28;20498;-63
2023/10/07 02:05:50;;;;;;;9.32;7.15;;;10.80;79.90;;;;;;4983925;28;20510;-64
2023/10/07 02:08:22;;;;;;;9.20;6.75;;;10.80;79.60;;;;;;4981826;28;20042;-63
2023/10/07 02:10:52;;;;;;;10.27;6.82;;;10.70;79.30;;;;;;4980811;28;20869;-63
2023/10/07 02:13:19;;;;;;;11.07;7.38;;;10.70;79.30;;;;;;4978337;28;20050;-63
2023/10/07 02:15:48;;;;;;;11.55;6.97;;;10.70;79.30;;;;;;4983205;28;21480;-64
2023/10/07 02:18:17;;;;;;;9.43;7.03;;;10.60;79.30;;;;;;4981672;28;20085;-63
2023/10/07 02:20:43;;;;;;;11.27;7.53;;;10.60;79.30;;;;;;4982709;28;20038;-63
2023/10/07 02:23:12;;;;;;;10.57;7.50;;;10.50;79.50;;;;;;4978824;28;20632;-63
2023/10/07 02:25:41;;;;;;;12.10;8.35;;;10.50;79.70;;;;;;4982929;28;20046;-63
2023/10/07 02:28:10;;;;;;;11.13;8.38;;;10.50;80.10;;;;;;4981983;28;20120;-64
2023/10/07 02:31:20;;;;;;;11.85;8.48;;;10.40;80.00;;;;;;4979988;28;20173;-64
2023/10/07 02:33:27;;;;;;;13.80;8.90;;;10.40;80.30;;;;;;4975904;28;20101;-64
2023/10/07 02:35:55;;;;;;;12.02;8.63;;;10.40;80.60;;;;;;4981496;28;20031;-64
2023/10/07 02:38:29;;;;;;;11.77;7.80;;;10.30;80.50;;;;;;4983912;28;20034;-64
2023/10/07 02:40:59;;;;;;;11.93;7.18;;;10.30;80.60;;;;;;4983461;28;20061;-64
2023/10/07 02:43:27;;;;;;;9.00;6.45;;;10.30;80.60;;;;;;4979391;28;20039;-64
2023/10/07 02:45:53;;;;;;;8.70;6.40;;;10.20;80.80;;;;;;4982328;28;20030;-64
2023/10/07 02:48:19;;;;;;;10.00;7.05;;;10.20;80.50;;;;;;4985769;28;20542;-64
2023/10/07 02:50:46;;;;;;;9.55;6.57;;;10.30;80.20;;;;;;4986158;28;20417;-64
2023/10/07 02:53:14;;;;;;;8.75;6.60;;;10.20;80.10;;;;;;4987154;28;20054;-64
2023/10/07 02:55:58;;;;;;;9.13;6.07;;;10.20;80.00;;;;;;4986658;28;20049;-64
2023/10/07 02:58:32;;;;;;;7.72;6.05;;;10.20;80.10;;;;;;4984434;28;20036;-64
2023/10/07 03:01:10;;;;;;;9.18;6.78;;;10.20;80.00;;;;;;4984020;28;20038;-63
2023/10/07 03:03:48;;;;;;;10.32;6.75;;;10.20;79.60;;;;;;4984561;28;20046;-64
2023/10/07 03:06:17;;;;;;;7.47;5.93;;;10.10;79.50;;;;;;4985506;28;20062;-64
2023/10/07 03:11:21;;;;;;;11.27;6.85;;;10.00;79.90;;;;;;4987353;28;20053;-64
2023/10/07 03:13:49;;;;;;;10.18;6.70;;;10.00;79.80;;;;;;4989151;28;20042;-63
2023/10/07 03:24:07;;;;;;;10.32;7.57;;;9.80;80.60;;;;;;4988805;28;20053;-64
2023/10/07 03:26:34;;;;;;;12.25;7.50;;;9.80;80.60;;;;;;4988377;28;20034;-63
2023/10/07 03:29:04;;;;;;;12.57;8.32;;;9.80;81.00;;;;;;4989121;28;20057;-63
2023/10/07 03:31:47;;;;;;;12.60;8.55;;;9.80;81.20;;;;;;4988618;28;20493;-64
2023/10/07 03:34:13;;;;;;;12.43;8.13;;;9.80;81.30;;;;;;4988607;28;20042;-64
2023/10/07 03:36:54;;;;;;;13.55;9.45;;;9.80;81.40;;;;;;4988098;28;20107;-64
2023/10/07 03:39:42;;;;;;;15.15;9.82;;;9.80;81.80;;;;;;4989282;28;20569;-63
2023/10/07 03:42:09;;;;;;;14.95;9.18;;;9.80;82.00;;;;;;4988876;28;20045;-64
2023/10/07 03:44:37;;;;;;;15.70;9.60;;;9.80;82.30;;;;;;4988138;28;20077;-64
2023/10/07 03:47:03;;;;;;;16.10;11.10;;;9.80;82.70;;;;;;4988534;28;20085;-63
2023/10/07 03:49:39;;;;;;;18.60;12.68;;;9.80;82.90;;;;;;4988604;28;20038;-64
2023/10/07 03:52:19;;;;;;;13.52;9.55;;;9.90;84.50;;;;;;4988354;28;20072;-64
2023/10/07 03:54:46;;;;;;;14.70;9.70;;;9.90;84.30;;;;;;4987507;28;20486;-63
2023/10/07 03:57:11;;;;;;;13.52;10.05;;;9.90;84.00;;;;;;4988164;28;20597;-63
2023/10/07 03:59:37;;;;;;;18.35;11.65;;;9.90;84.30;;;;;;4988360;28;20390;-64
2023/10/07 04:04:55;;;;;;;11.25;8.10;;;10.00;84.40;;;;;;4986991;28;20982;-63
2023/10/07 04:07:21;;;;;;;10.98;7.50;;;10.00;83.80;;;;;;4988347;28;20100;-63
2023/10/07 04:09:46;;;;;;;10.25;7.97;;;10.10;83.40;;;;;;4986063;28;20514;-62
2023/10/07 04:12:14;;;;;;;10.27;8.20;;;10.10;83.10;;;;;;4985431;28;20034;-64
2023/10/07 04:14:42;;;;;;;11.80;7.95;;;10.10;82.70;;;;;;4985691;28;20046;-64
2023/10/07 04:17:14;;;;;;;12.15;9.13;;;10.10;82.40;;;;;;4988464;28;20030;-64
2023/10/07 04:19:42;;;;;;;15.23;9.43;;;10.10;82.40;;;;;;4988203;28;20065;-63
2023/10/07 04:22:08;;;;;;;17.08;10.32;;;10.10;82.20;;;;;;4987884;28;20041;-64
2023/10/07 04:24:38;;;;;;;17.13;9.88;;;10.10;82.20;;;;;;4987087;28;20411;-64
2023/10/07 04:27:03;;;;;;;35.28;13.05;;;10.10;82.30;;;;;;4986706;28;20042;-64
2023/10/07 04:29:31;;;;;;;29.52;13.98;;;10.10;82.40;;;;;;4987579;28;20692;-62
2023/10/07 04:31:58;;;;;;;23.30;14.43;;;10.10;82.90;;;;;;4987320;28;20049;-63
2023/10/07 04:34:33;;;;;;;22.58;14.52;;;10.00;83.30;;;;;;4988542;28;20060;-63
2023/10/07 04:39:28;;;;;;;18.52;12.30;;;10.00;83.40;;;;;;4987639;28;20039;-63
2023/10/07 04:41:58;;;;;;;19.90;12.73;;;10.00;83.60;;;;;;4987809;28;20034;-63
2023/10/07 04:47:34;;;;;;;20.75;12.55;;;10.00;83.40;;;;;;4986918;28;20096;-63
2023/10/07 04:52:33;;;;;;;18.20;11.75;;;10.00;83.70;;;;;;4986528;28;20035;-64
2023/10/07 04:55:01;;;;;;;16.52;11.05;;;10.00;84.60;;;;;;4987357;28;20042;-64
2023/10/07 05:02:57;;;;;;;15.48;10.35;;;9.90;85.90;;;;;;4987095;28;20034;-62
2023/10/07 05:05:33;;;;;;;14.13;9.85;;;10.00;86.00;;;;;;4987284;28;20034;-64
2023/10/07 05:08:16;;;;;;;13.25;9.85;;;10.00;85.70;;;;;;4986749;28;20034;-63
2023/10/07 05:10:42;;;;;;;12.95;9.13;;;10.00;85.40;;;;;;4983368;28;20126;-64
2023/10/07 05:13:10;;;;;;;14.07;9.55;;;10.10;85.00;;;;;;4984566;28;20577;-64
2023/10/07 05:15:38;;;;;;;13.63;9.00;;;10.20;84.60;;;;;;4981830;28;20451;-63
2023/10/07 05:18:05;;;;;;;12.73;8.98;;;10.20;83.90;;;;;;4987254;28;20069;-63
2023/10/07 05:20:33;;;;;;;17.52;9.55;;;10.20;83.20;;;;;;4986356;28;20121;-64
2023/10/07 05:23:02;;;;;;;13.23;8.75;;;10.20;82.70;;;;;;4986543;28;20054;-64
2023/10/07 05:25:27;;;;;;;11.82;8.77;;;10.20;82.30;;;;;;4987067;28;20030;-64
2023/10/07 05:27:54;;;;;;;12.60;8.18;;;10.10;82.20;;;;;;4986360;28;20026;-64
2023/10/07 05:30:21;;;;;;;10.43;7.80;;;10.10;82.40;;;;;;4986974;28;20046;-64
2023/10/07 05:32:47;;;;;;;12.00;7.80;;;10.00;82.60;;;;;;4985784;28;20120;-64
2023/10/07 05:35:18;;;;;;;10.38;7.82;;;10.00;82.50;;;;;;4986164;28;20057;-63
2023/10/07 05:37:45;;;;;;;11.60;7.95;;;10.00;82.70;;;;;;4986420;28;20422;-63
2023/10/07 05:40:14;;;;;;;14.88;8.27;;;10.00;82.90;;;;;;4986565;28;20609;-63
2023/10/07 05:42:40;;;;;;;15.13;8.80;;;10.00;83.10;;;;;;4985727;28;20046;-63
2023/10/07 05:45:08;;;;;;;12.00;8.15;;;10.00;82.90;;;;;;4987054;28;20043;-63
2023/10/07 05:47:34;;;;;;;13.27;9.10;;;10.00;82.80;;;;;;4986547;28;20434;-63
2023/10/07 05:50:00;;;;;;;17.40;8.70;;;10.00;82.60;;;;;;4986107;28;20056;-64
2023/10/07 05:52:27;;;;;;;16.08;9.15;;;10.00;82.40;;;;;;4985736;28;20030;-64
2023/10/07 05:54:56;;;;;;;16.40;10.70;;;10.00;83.30;;;;;;4986771;28;20452;-63
2023/10/07 05:57:23;;;;;;;18.33;10.23;;;10.00;82.80;;;;;;4986639;28;20048;-64
2023/10/07 05:59:50;;;;;;;58.33;9.57;;;10.00;83.30;;;;;;4986200;28;20136;-64
2023/10/07 06:02:16;;;;;;;57.42;10.38;;;10.00;83.80;;;;;;4985942;28;20129;-63
2023/10/07 06:04:43;;;;;;;45.38;9.68;;;10.00;84.40;;;;;;4985632;28;20510;-62
2023/10/07 06:07:14;;;;;;;40.30;10.43;;;10.00;84.80;;;;;;4986531;28;20057;-63
2023/10/07 06:09:42;;;;;;;27.48;8.93;;;10.00;85.30;;;;;;4985349;28;20065;-64
2023/10/07 06:12:09;;;;;;;9.70;8.45;;;10.00;85.70;;;;;;4984257;28;20031;-62
2023/10/07 06:14:35;;;;;;;12.80;9.35;;;10.00;85.90;;;;;;4975902;28;20105;-63
2023/10/07 06:17:01;;;;;;;13.32;9.55;;;10.00;86.00;;;;;;4968149;28;20160;-63
2023/10/07 06:19:26;;;;;;;14.35;9.48;;;10.00;85.90;;;;;;4972353;28;20124;-61
2023/10/07 06:21:52;;;;;;;12.77;8.98;;;10.10;85.90;;;;;;4966655;28;20454;-63
2023/10/07 06:24:21;;;;;;;12.68;10.20;;;10.10;85.70;;;;;;4979498;28;20121;-63
2023/10/07 06:26:53;;;;;;;14.00;9.90;;;10.20;85.90;;;;;;4977386;28;20038;-63
2023/10/07 06:29:19;;;;;;;14.38;11.10;;;10.20;86.40;;;;;;4980410;28;20046;-63
2023/10/07 06:31:55;;;;;;;14.75;10.57;;;10.20;86.40;;;;;;4980054;28;20101;-63
2023/10/07 06:34:25;;;;;;;16.15;11.70;;;10.30;87.90;;;;;;4976225;28;20141;-64
2023/10/07 06:36:52;;;;;;;15.48;10.38;;;10.40;87.30;;;;;;4972357;28;20096;-63
2023/10/07 06:39:27;;;;;;;16.17;11.30;;;10.40;87.70;;;;;;4975558;28;20080;-63
2023/10/07 06:41:55;;;;;;;15.52;10.80;;;10.60;88.30;;;;;;4976260;28;20033;-63
2023/10/07 06:44:23;;;;;;;16.00;11.38;;;10.70;88.50;;;;;;4981658;28;20039;-63
2023/10/07 06:46:54;;;;;;;14.90;10.65;;;10.80;88.70;;;;;;4981395;28;20060;-63
2023/10/07 06:49:20;;;;;;;18.98;12.10;;;10.90;89.00;;;;;;4982266;28;20038;-63
2023/10/07 06:51:53;;;;;;;16.15;12.10;;;11.00;89.20;;;;;;4976681;28;20541;-64
2023/10/07 06:54:23;;;;;;;16.75;12.55;;;11.10;89.70;;;;;;4979828;28;20061;-63
2023/10/07 06:56:54;;;;;;;21.23;12.77;;;11.20;90.10;;;;;;4976622;28;20039;-63
2023/10/07 06:59:27;;;;;;;19.63;12.38;;;11.30;90.00;;;;;;4981155;28;20066;-63
2023/10/07 07:01:54;;;;;;;20.52;14.00;;;11.40;90.10;;;;;;4976036;28;20479;-64
2023/10/07 07:04:22;;;;;;;21.17;13.57;;;11.50;90.30;;;;;;4978974;28;20056;-64
2023/10/07 07:06:57;;;;;;;21.80;13.55;;;11.60;90.50;;;;;;4983441;28;20486;-64
2023/10/07 07:09:41;;;;;;;21.27;12.70;;;11.70;90.60;;;;;;4984861;28;20112;-64
2023/10/07 07:12:09;;;;;;;18.00;12.85;;;11.90;90.80;;;;;;4980874;28;20114;-63
2023/10/07 07:14:35;;;;;;;19.20;13.32;;;12.00;90.80;;;;;;4975645;28;20497;-63
2023/10/07 07:20:18;;;;;;;15.85;11.75;;;12.40;91.00;;;;;;4984670;28;20100;-64
2023/10/07 07:22:46;;;;;;;15.38;11.20;;;12.50;90.80;;;;;;4978942;28;20045;-63
2023/10/07 07:27:49;;;;;;;16.80;11.55;;;12.80;90.80;;;;;;4981940;28;20594;-62
2023/10/07 07:30:31;;;;;;;16.60;11.32;;;13.00;90.70;;;;;;4975558;28;20038;-64
2023/10/07 07:33:06;;;;;;;14.88;11.10;;;13.10;90.70;;;;;;4982105;28;20089;-64
2023/10/07 07:35:40;;;;;;;17.05;10.70;;;13.30;90.60;;;;;;4985673;28;20043;-64
2023/10/07 07:41:06;;;;;;;12.95;10.18;;;13.60;90.20;;;;;;4986433;28;20286;-64
2023/10/07 07:43:34;;;;;;;13.45;10.32;;;13.70;90.20;;;;;;4986562;28;20107;-64
2023/10/07 07:49:08;;;;;;;11.65;9.43;;;14.00;90.00;;;;;;4987683;28;20516;-63
2023/10/07 07:51:37;;;;;;;11.65;8.98;;;14.10;89.20;;;;;;4988106;28;20158;-63
2023/10/07 07:54:05;;;;;;;12.55;9.10;;;14.20;89.00;;;;;;4983753;28;20032;-64
2023/10/07 07:56:32;;;;;;;18.38;9.45;;;14.20;88.70;;;;;;4981046;28;20041;-63
2023/10/07 07:58:58;;;;;;;12.90;8.63;;;14.30;88.60;;;;;;4986941;28;20054;-64
2023/10/07 08:01:31;;;;;;;12.35;8.85;;;14.30;88.50;;;;;;4981110;28;20118;-63
2023/10/07 08:04:09;;;;;;;11.00;9.05;;;14.40;88.30;;;;;;4984629;28;20076;-64
2023/10/07 08:06:35;;;;;;;14.55;8.98;;;14.50;88.10;;;;;;4984375;28;20049;-64
2023/10/07 08:09:02;;;;;;;19.15;8.95;;;14.60;87.90;;;;;;4985591;28;20034;-63
2023/10/07 08:11:34;;;;;;;11.75;8.65;;;14.70;87.80;;;;;;4984900;28;20034;-63
2023/10/07 08:14:09;;;;;;;11.98;8.10;;;14.70;88.50;;;;;;4985635;28;20051;-63
2023/10/07 08:16:46;;;;;;;11.83;7.63;;;14.80;87.50;;;;;;4984629;28;20038;-63
2023/10/07 08:19:13;;;;;;;11.90;7.57;;;14.90;87.10;;;;;;4985762;28;20681;-63
2023/10/07 08:21:39;;;;;;;12.27;8.13;;;15.00;86.70;;;;;;4985828;28;20049;-63
2023/10/07 08:24:06;;;;;;;12.18;8.93;;;15.10;86.60;;;;;;4984784;28;20042;-63
2023/10/07 08:26:34;;;;;;;13.65;8.98;;;15.20;86.60;;;;;;4987406;28;20058;-63
2023/10/07 08:29:00;;;;;;;14.50;8.43;;;15.30;86.20;;;;;;4984544;28;20042;-63
2023/10/07 08:31:39;;;;;;;14.13;8.70;;;15.40;85.80;;;;;;4987491;28;20045;-63
2023/10/07 08:36:36;;;;;;;10.40;7.93;;;15.60;85.30;;;;;;4987504;28;20096;-63
2023/10/07 08:39:06;;;;;;;13.15;7.85;;;15.70;84.80;;;;;;4986816;28;20042;-63
2023/10/07 08:41:32;;;;;;;13.57;8.15;;;15.80;84.20;;;;;;4987672;28;20027;-63
2023/10/07 08:44:16;;;;;;;11.77;7.95;;;15.80;83.40;;;;;;4984600;28;22082;-63
2023/10/07 08:46:54;;;;;;;10.82;8.18;;;15.90;82.80;;;;;;4985513;28;20682;-63
2023/10/07 08:49:26;;;;;;;11.85;7.85;;;16.00;82.90;;;;;;4984816;28;20058;-63
2023/10/07 08:51:56;;;;;;;12.70;8.57;;;16.00;82.70;;;;;;4987000;28;20038;-63
2023/10/07 08:54:26;;;;;;;11.10;7.95;;;16.00;82.50;;;;;;4979093;28;20591;-63
2023/10/07 08:56:57;;;;;;;8.95;7.00;;;16.10;82.60;;;;;;4981374;28;20073;-63
2023/10/07 08:59:33;;;;;;;8.77;6.55;;;16.10;82.60;;;;;;4977961;28;20081;-62
2023/10/07 09:02:00;;;;;;;10.38;6.55;;;16.10;82.50;;;;;;4978074;28;20514;-63
2023/10/07 09:04:31;;;;;;;8.18;6.50;;;16.20;82.40;;;;;;4975766;28;20056;-64
2023/10/07 09:07:00;;;;;;;9.60;6.40;;;16.30;82.20;;;;;;4985014;28;20113;-63
2023/10/07 09:09:39;;;;;;;8.68;5.97;;;16.40;82.00;;;;;;4988768;28;20414;-62
2023/10/07 09:12:14;;;;;;;6.68;4.45;;;16.40;81.70;;;;;;4987497;28;20030;-62
2023/10/07 09:14:47;;;;;;;5.93;4.35;;;16.60;81.10;;;;;;4987854;28;20038;-63
2023/10/07 09:17:13;;;;;;;5.93;4.00;;;16.70;80.20;;;;;;4988892;28;20054;-63
2023/10/07 09:19:43;;;;;;;7.47;4.22;;;16.80;79.90;;;;;;4988562;28;20034;-63
2023/10/07 09:22:14;;;;;;;7.65;4.80;;;16.90;79.30;;;;;;4982573;28;20065;-63
2023/10/07 09:24:44;;;;;;;7.60;4.40;;;17.00;78.60;;;;;;4978148;28;20046;-63
2023/10/07 09:27:13;;;;;;;8.30;4.20;;;17.20;77.80;;;;;;4981167;28;20050;-63
2023/10/07 09:29:39;;;;;;;7.65;4.07;;;17.30;77.20;;;;;;4980070;28;20042;-64
2023/10/07 09:32:06;;;;;;;7.53;3.95;;;17.40;77.20;;;;;;4978097;28;20077;-63
2023/10/07 09:34:47;;;;;;;6.18;3.72;;;17.50;76.70;;;;;;4978858;28;20031;-64
2023/10/07 09:37:17;;;;;;;4.90;3.42;;;17.70;76.00;;;;;;4985031;28;20517;-63
2023/10/07 09:39:44;;;;;;;6.15;3.33;;;17.80;76.00;;;;;;4985375;28;20065;-63
2023/10/07 09:42:26;;;;;;;4.15;3.05;;;17.90;75.60;;;;;;4987110;28;20043;-63
2023/10/07 09:45:07;;;;;;;4.82;3.08;;;18.10;74.50;;;;;;4980895;28;20038;-64
2023/10/07 09:47:37;;;;;;;5.07;3.40;;;18.20;74.30;;;;;;4987448;28;20031;-63
2023/10/07 09:50:19;;;;;;;4.65;3.45;;;18.40;73.20;;;;;;4986127;28;20030;-63
2023/10/07 09:52:56;;;;;;;4.88;3.45;;;18.60;72.60;;;;;;4985132;28;20521;-63
2023/10/07 09:55:40;;;;;;;5.13;3.05;;;18.80;71.20;;;;;;4986481;28;20037;-64
2023/10/07 09:58:41;;;;;;;3.07;2.63;;;18.90;71.20;;;;;;4985756;28;20030;-63
2023/10/07 10:01:36;;;;;;;6.60;2.95;;;19.10;69.30;;;;;;4984812;28;20276;-63
2023/10/07 10:04:15;;;;;;;5.22;3.05;;;19.30;68.80;;;;;;4985575;28;20065;-63
2023/10/07 10:06:52;;;;;;;5.72;3.30;;;19.40;69.10;;;;;;4985381;28;20042;-64
2023/10/07 10:09:27;;;;;;;6.13;3.45;;;19.50;67.80;;;;;;4986381;28;20030;-64
2023/10/07 10:15:50;;;;;;;6.28;3.10;;;19.70;68.50;;;;;;4975448;28;20045;-63
2023/10/07 10:17:48;;;;;;;5.47;3.40;;;19.80;68.20;;;;;;4985392;28;20168;-64
2023/10/07 10:20:18;;;;;;;4.97;3.47;;;19.80;67.60;;;;;;4985467;28;20113;-62
2023/10/07 10:22:53;;;;;;;5.68;3.33;;;19.90;67.40;;;;;;4984835;28;20042;-61
2023/10/07 10:25:26;;;;;;;4.78;3.17;;;20.00;67.00;;;;;;4985760;28;20038;-63
2023/10/07 10:28:01;;;;;;;5.25;3.38;;;20.00;67.30;;;;;;4985235;28;20058;-64
2023/10/07 10:30:28;;;;;;;4.95;2.67;;;20.10;65.90;;;;;;4985495;28;20107;-64
2023/10/07 10:32:57;;;;;;;5.07;3.08;;;20.20;64.80;;;;;;4985257;28;20391;-63
2023/10/07 10:35:29;;;;;;;4.22;2.95;;;20.20;64.00;;;;;;4985139;28;20038;-63
2023/10/07 10:37:59;;;;;;;6.03;2.90;;;20.30;63.60;;;;;;4985182;28;20042;-64
2023/10/07 10:40:31;;;;;;;3.78;2.67;;;20.30;64.10;;;;;;4986977;28;20037;-64
2023/10/07 10:42:57;;;;;;;3.83;2.78;;;20.30;64.00;;;;;;4984138;28;20040;-63
2023/10/07 10:45:25;;;;;;;4.22;2.92;;;20.40;64.00;;;;;;4985469;28;20517;-63
2023/10/07 10:47:55;;;;;;;4.07;2.70;;;20.40;63.60;;;;;;4984901;28;20061;-63
2023/10/07 10:50:28;;;;;;;2.88;2.40;;;20.40;63.20;;;;;;4983886;28;20068;-63
2023/10/07 10:52:55;;;;;;;4.95;2.90;;;20.50;63.10;;;;;;4981236;28;20034;-64
2023/10/07 10:55:24;;;;;;;4.80;2.40;;;20.50;61.90;;;;;;4981824;28;20031;-63
2023/10/07 10:57:52;;;;;;;3.67;2.50;;;20.50;60.60;;;;;;4985971;28;20039;-63
2023/10/07 11:00:24;;;;;;;3.83;2.40;;;20.60;60.00;;;;;;4984443;28;20069;-64
2023/10/07 11:02:54;;;;;;;5.18;2.28;;;20.60;59.80;;;;;;4984021;28;20038;-63
2023/10/07 11:05:21;;;;;;;4.00;2.25;;;20.70;59.60;;;;;;4982852;28;20498;-64
2023/10/07 11:07:49;;;;;;;4.55;2.55;;;20.70;59.50;;;;;;4983835;28;20042;-63
2023/10/07 11:10:25;;;;;;;6.43;2.60;;;20.70;59.00;;;;;;4986726;28;20519;-63
2023/10/07 11:12:54;;;;;;;4.00;2.40;;;20.80;59.20;;;;;;4985329;28;20520;-63
2023/10/07 11:15:29;;;;;;;4.82;2.28;;;20.90;59.20;;;;;;4989269;28;20069;-63
2023/10/07 11:18:12;;;;;;;4.90;2.72;;;20.90;59.70;;;;;;4988959;28;20065;-63
2023/10/07 11:20:40;;;;;;;5.10;2.85;;;21.00;59.20;;;;;;4988513;28;20137;-63
2023/10/07 11:23:08;;;;;;;7.63;2.42;;;21.00;58.00;;;;;;4988499;28;20065;-63
2023/10/07 11:25:35;;;;;;;3.00;2.20;;;21.10;58.30;;;;;;4988509;28;20100;-63
2023/10/07 11:28:09;;;;;;;5.43;2.30;;;21.10;57.90;;;;;;4987545;28;20560;-63
2023/10/07 11:30:46;;;;;;;2.95;2.28;;;21.20;57.30;;;;;;4990289;28;20417;-63
2023/10/07 11:33:16;;;;;;;6.85;2.42;;;21.30;56.30;;;;;;4988566;28;20096;-63
2023/10/07 11:35:42;;;;;;;4.65;2.20;;;21.40;57.00;;;;;;4987667;28;20030;-63
2023/10/07 11:38:11;;;;;;;4.72;2.13;;;21.40;55.30;;;;;;4988828;28;20040;-63
2023/10/07 11:40:37;;;;;;;3.15;2.05;;;21.50;55.70;;;;;;4988165;28;20041;-63
2023/10/07 11:43:08;;;;;;;3.97;2.47;;;21.50;55.60;;;;;;4988505;28;20030;-63
2023/10/07 11:45:36;;;;;;;3.15;2.20;;;21.50;55.10;;;;;;4987801;28;20517;-63
2023/10/07 11:48:05;;;;;;;3.45;2.00;;;21.60;55.20;;;;;;4987883;28;20038;-64
2023/10/07 11:50:35;;;;;;;4.55;2.00;;;21.60;54.80;;;;;;4987616;28;20046;-63
2023/10/07 11:53:02;;;;;;;8.20;2.45;;;21.70;53.70;;;;;;4987108;28;20069;-63
2023/10/07 11:55:27;;;;;;;4.18;2.50;;;21.70;54.50;;;;;;4988165;28;20132;-64
2023/10/07 11:57:54;;;;;;;4.63;2.65;;;21.80;55.80;;;;;;4987672;28;20035;-63
2023/10/07 12:00:31;;;;;;;4.50;2.40;;;21.80;56.70;;;;;;4987629;28;20038;-63
2023/10/07 12:02:57;;;;;;;3.92;2.42;;;21.90;57.50;;;;;;4986374;28;20042;-63
2023/10/07 12:05:27;;;;;;;4.70;2.63;;;22.00;57.80;;;;;;4987369;28;20558;-63
2023/10/07 12:07:59;;;;;;;3.75;2.30;;;22.00;57.50;;;;;;4985937;28;20038;-63
2023/10/07 12:10:26;;;;;;;3.55;2.30;;;22.10;56.90;;;;;;4986902;28;20058;-63
2023/10/07 12:12:52;;;;;;;2.55;2.03;;;22.10;55.30;;;;;;4983406;28;20031;-63
2023/10/07 12:15:18;;;;;;;2.63;1.75;;;22.10;53.60;;;;;;4983165;28;20612;-63
2023/10/07 12:17:49;;;;;;;4.40;2.00;;;22.20;52.10;;;;;;4986692;28;20065;-63
2023/10/07 12:20:19;;;;;;;5.20;2.30;;;22.20;50.60;;;;;;4986117;28;20114;-64
2023/10/07 12:22:46;;;;;;;4.05;2.20;;;22.20;50.90;;;;;;4986077;28;20049;-63
2023/10/07 12:25:16;;;;;;;2.67;1.80;;;22.30;51.10;;;;;;4987077;28;20134;-64
2023/10/07 12:27:43;;;;;;;3.25;2.15;;;22.30;51.10;;;;;;4985317;28;20038;-63
2023/10/07 12:30:11;;;;;;;3.70;2.28;;;22.40;50.60;;;;;;4987007;28;20121;-63
2023/10/07 12:32:41;;;;;;;4.70;2.42;;;22.40;49.10;;;;;;4984930;28;20068;-63
2023/10/07 12:35:09;;;;;;;2.92;2.00;;;22.40;49.40;;;;;;4986318;28;20038;-63
2023/10/07 12:37:41;;;;;;;2.67;1.85;;;22.50;49.70;;;;;;4986387;28;20042;-63
2023/10/07 12:40:11;;;;;;;3.10;1.90;;;22.50;49.50;;;;;;4986978;28;20611;-63
2023/10/07 12:42:41;;;;;;;6.80;2.08;;;22.50;49.70;;;;;;4985982;28;20045;-63
2023/10/07 12:45:08;;;;;;;4.88;2.30;;;22.50;49.20;;;;;;4986896;28;20039;-63
2023/10/07 12:47:34;;;;;;;3.25;2.13;;;22.50;48.90;;;;;;4985643;28;20026;-63
2023/10/07 12:50:20;;;;;;;3.92;1.80;;;22.50;47.50;;;;;;4986866;28;20043;-63
2023/10/07 12:52:59;;;;;;;5.25;2.13;;;22.50;47.60;;;;;;4985538;28;20065;-63
2023/10/07 12:55:37;;;;;;;3.88;2.15;;;22.50;48.00;;;;;;4986181;28;20085;-64
2023/10/07 12:58:05;;;;;;;3.70;1.98;;;22.50;47.40;;;;;;4986220;28;20038;-63
2023/10/07 13:00:33;;;;;;;2.35;1.80;;;22.50;48.70;;;;;;4976915;28;20126;-64
2023/10/07 13:03:04;;;;;;;3.97;2.05;;;22.40;48.50;;;;;;4985888;28;20048;-63
2023/10/07 13:05:33;;;;;;;3.78;2.00;;;22.40;47.80;;;;;;4948431;28;1113424;-63
2023/10/07 13:07:59;;;;;;;2.88;1.77;;;22.30;48.10;;;;;;4986802;28;20533;-63
2023/10/07 13:10:26;;;;;;;3.58;1.50;;;22.30;48.00;;;;;;4989159;28;20038;-63
2023/10/07 13:12:55;;;;;;;3.40;1.80;;;22.20;48.10;;;;;;4988087;28;20026;-64
2023/10/07 13:15:30;;;;;;;4.63;1.80;;;22.20;48.50;;;;;;4987975;28;20030;-63
2023/10/07 13:17:58;;;;;;;5.45;3.63;;;22.20;48.50;;;;;;4989046;28;20037;-63
2023/10/07 13:20:24;;;;;;;4.68;2.80;;;22.20;48.60;;;;;;4987344;28;20061;-63
2023/10/07 13:22:51;;;;;;;2.80;1.90;;;22.20;48.50;;;;;;4985984;28;20510;-63
2023/10/07 13:25:19;;;;;;;6.15;1.98;;;22.20;48.50;;;;;;4986910;28;20192;-63
2023/10/07 13:27:46;;;;;;;4.22;2.33;;;22.20;48.90;;;;;;4985705;28;20034;-63
2023/10/07 13:30:12;;;;;;;4.55;1.80;;;22.20;49.00;;;;;;4986883;28;20516;-63
2023/10/07 13:32:44;;;;;;;3.85;2.28;;;22.20;48.50;;;;;;4984462;28;20049;-63
2023/10/07 13:35:16;;;;;;;4.15;1.60;;;22.20;48.30;;;;;;4986469;28;20030;-64
2023/10/07 13:37:49;;;;;;;6.60;1.92;;;22.20;47.80;;;;;;4986327;28;20426;-64
2023/10/07 13:40:16;;;;;;;4.20;1.70;;;22.20;48.40;;;;;;4988552;28;20442;-63
2023/10/07 13:42:54;;;;;;;2.95;1.80;;;22.20;48.80;;;;;;4987067;28;20038;-63
2023/10/07 13:45:24;;;;;;;2.75;1.98;;;22.20;48.60;;;;;;4988781;28;20022;-63
2023/10/07 13:47:51;;;;;;;3.40;2.17;;;22.20;48.60;;;;;;4988221;28;20049;-63
2023/10/07 13:50:24;;;;;;;3.08;1.98;;;22.20;48.90;;;;;;4989001;28;20037;-64
2023/10/07 13:52:50;;;;;;;4.50;2.17;;;22.20;48.50;;;;;;4987691;28;20049;-63
2023/10/07 13:55:33;;;;;;;3.78;2.25;;;22.20;48.90;;;;;;4988147;28;20039;-63